Погода Уволокина 2 недели

Витебская область, Белоруссия

26 мая-08 июня
  • 26мая
    Сегодня
    +13°
    +26°
    Ясно и безоблачно
    ВремяПогодаТемператураВлажностьДавлениеВетер, м/сВероятность осадков
    00:00Ясно и безоблачно+15°C75 %756 мм2.4 м/с2 %
    03:00Ясно и безоблачно+13°C71 %756 мм2.3 м/с2 %
    06:00Небольшая облачность+13°C74 %757 мм1.7 м/с2 %
    09:00Ясно и безоблачно+20°C63 %757 мм1.9 м/с2 %
    12:00Практически безоблачно+24°C41 %756 мм1.9 м/с2 %
    15:00Ясно и безоблачно+26°C38 %756 мм2.6 м/с2 %
    18:00Небольшая облачность+25°C39 %755 мм2.2 м/с2 %
    21:00Ясно и безоблачно+22°C64 %756 мм1.6 м/с2 %
  • 27мая
    Понедельник
    +14°
    +27°
    Ясно и безоблачно
    ВремяПогодаТемператураВлажностьДавлениеВетер, м/сВероятность осадков
    00:00Ясно и безоблачно+18°C75 %756 мм1.9 м/с2 %
    03:00Ясно и безоблачно+15°C81 %756 мм1.7 м/с2 %
    06:00Ясно и безоблачно+15°C85 %756 мм1.5 м/с2 %
    09:00Ясно и безоблачно+21°C64 %756 мм1.4 м/с2 %
    12:00Ясно и безоблачно+25°C43 %756 мм1.9 м/с2 %
    15:00Ясно и безоблачно+26°C42 %755 мм2.3 м/с2 %
    18:00Практически безоблачно+25°C44 %755 мм1.8 м/с12 %
    21:00Практически безоблачно+22°C70 %754 мм1.6 м/с9 %
  • 28мая
    Вторник
    +14°
    +25°
    Небольшая облачность, возможен дождь с грозой
    ВремяПогодаТемператураВлажностьДавлениеВетер, м/сВероятность осадков
    00:00Ясно и безоблачно+17°C85 %754 мм1.9 м/с2 %
    03:00Ясно и безоблачно+16°C88 %754 мм2.0 м/с2 %
    06:00Ясно и безоблачно+16°C87 %754 мм1.9 м/с2 %
    09:00Ясно и безоблачно+22°C65 %754 мм2.2 м/с2 %
    12:00Практически безоблачно+24°C54 %754 мм2.8 м/с18 %
    15:00Небольшая облачность, возможен дождь с грозой+24°C53 %753 мм3.0 м/с43 %
    18:00Небольшая облачность, ливень+22°C71 %752 мм1.8 м/с53 %
    21:00Небольшая облачность+20°C83 %752 мм1.6 м/с25 %
  • 29мая
    Среда
    +15°
    +27°
    Ясно и безоблачно
    ВремяПогодаТемператураВлажностьДавлениеВетер, м/сВероятность осадков
    00:00Ясно и безоблачно+17°C93 %751 мм1.9 м/с3 %
    03:00Практически безоблачно+15°C95 %751 мм1.9 м/с2 %
    06:00Небольшая облачность+16°C91 %750 мм1.5 м/с3 %
    09:00Небольшая облачность+21°C72 %750 мм1.9 м/с3 %
    12:00Небольшая облачность+25°C46 %750 мм2.3 м/с12 %
    15:00Ясно и безоблачно+26°C38 %749 мм2.4 м/с26 %
    18:00Практически безоблачно+25°C45 %748 мм2.0 м/с25 %
    21:00Ясно и безоблачно+21°C71 %748 мм2.1 м/с8 %
  • 30мая
    Четверг
    +13°
    +27°
    Облачно с прояснениями
    ВремяПогодаТемператураВлажностьДавлениеВетер, м/сВероятность осадков
    00:00Ясно и безоблачно+18°C81 %748 мм2.3 м/с2 %
    03:00Ясно и безоблачно+16°C88 %747 мм1.9 м/с2 %
    06:00Небольшая облачность+16°C83 %747 мм2.1 м/с2 %
    09:00Облачно с прояснениями+21°C63 %747 мм2.6 м/с2 %
    12:00Облачно с прояснениями+24°C41 %747 мм3.1 м/с13 %
    15:00Облачно с прояснениями+26°C35 %746 мм3.5 м/с18 %
    18:00Облачно с прояснениями+25°C36 %745 мм2.7 м/с26 %
    21:00Облачно с прояснениями+22°C52 %746 мм1.8 м/с11 %
Мы используем cookies
Соглашаюсь